Time;durP1;ratioP1;P1;durP2;ratioP2;P2;SDS_P1;SDS_P2;PMS_P1;PMS_P2;Temp;Humidity;BMP_temperature;BMP_pressure;BME280_temperature;BME280_humidity;BME280_pressure;Samples;Min_cycle;Max_cycle;Signal;HPM_P1;HPM_P2
2024/03/22 00:01:52;;;;;;;1.90;1.48;;;10.40;99.90;;;;;;4998380;28;20273;-91
2024/03/22 00:04:18;;;;;;;3.42;1.60;;;10.40;99.90;;;;;;4995913;28;20034;-91
2024/03/22 00:06:46;;;;;;;2.70;1.25;;;10.30;99.90;;;;;;4997572;28;20033;-91
2024/03/22 00:09:12;;;;;;;1.92;1.38;;;10.30;99.90;;;;;;4997907;28;20026;-91
2024/03/22 00:11:40;;;;;;;2.15;1.10;;;10.30;99.90;;;;;;4997631;28;20631;-91
2024/03/22 00:14:06;;;;;;;3.13;1.13;;;10.30;99.90;;;;;;4997488;28;20018;-91
2024/03/22 00:16:32;;;;;;;3.88;1.30;;;10.20;99.90;;;;;;5001064;28;20029;-91
2024/03/22 00:18:58;;;;;;;1.98;1.27;;;10.20;99.90;;;;;;5002051;28;20105;-92
2024/03/22 00:21:24;;;;;;;2.20;1.17;;;10.20;99.90;;;;;;5008508;28;20020;-91
2024/03/22 00:23:50;;;;;;;1.85;1.17;;;10.20;99.90;;;;;;4996889;28;20113;-92
2024/03/22 00:26:16;;;;;;;1.10;1.00;;;10.10;99.90;;;;;;5002292;28;20045;-91
2024/03/22 00:28:42;;;;;;;1.50;1.20;;;10.10;99.90;;;;;;5004800;28;20078;-92
2024/03/22 00:31:08;;;;;;;1.73;0.95;;;10.10;99.90;;;;;;4997554;28;20026;-91
2024/03/22 00:33:34;;;;;;;1.55;1.13;;;10.10;99.90;;;;;;4996878;28;20022;-91
2024/03/22 00:36:00;;;;;;;2.80;1.10;;;10.00;99.90;;;;;;4997237;28;20036;-93
2024/03/22 00:38:25;;;;;;;1.25;0.63;;;10.00;99.90;;;;;;4997138;28;20033;-91
2024/03/22 00:40:51;;;;;;;1.70;0.50;;;10.00;99.90;;;;;;4996618;28;20014;-91
2024/03/22 00:43:17;;;;;;;3.08;0.82;;;10.00;99.90;;;;;;4993847;28;20037;-91
2024/03/22 00:45:42;;;;;;;1.02;0.60;;;10.00;99.90;;;;;;4996255;28;20029;-91
2024/03/22 00:48:08;;;;;;;0.95;0.50;;;10.00;99.90;;;;;;4996710;28;20081;-91
2024/03/22 00:50:33;;;;;;;2.38;0.52;;;10.00;99.90;;;;;;4996342;28;20026;-91
2024/03/22 00:52:59;;;;;;;1.75;0.82;;;10.00;99.90;;;;;;4996363;28;20467;-91
2024/03/22 00:55:25;;;;;;;2.65;0.80;;;10.00;99.90;;;;;;4996487;28;20033;-91
2024/03/22 00:57:51;;;;;;;2.42;1.00;;;10.00;99.90;;;;;;4995915;28;20459;-91
2024/03/22 01:00:17;;;;;;;3.10;1.20;;;10.00;99.90;;;;;;4993737;28;20026;-92
2024/03/22 01:02:44;;;;;;;3.78;1.60;;;10.00;99.90;;;;;;4996539;28;20028;-92
2024/03/22 01:05:09;;;;;;;1.98;1.67;;;10.00;99.90;;;;;;4996232;28;20022;-91
2024/03/22 01:07:36;;;;;;;3.00;1.60;;;9.90;99.90;;;;;;4995943;28;20037;-92
2024/03/22 01:10:03;;;;;;;2.33;1.80;;;9.90;99.90;;;;;;4996122;28;20471;-89
2024/03/22 01:12:28;;;;;;;3.40;2.05;;;9.90;99.90;;;;;;4996383;28;20065;-92
2024/03/22 01:14:54;;;;;;;2.50;2.17;;;9.90;99.90;;;;;;4996295;28;20460;-91
2024/03/22 01:17:20;;;;;;;2.40;2.20;;;9.90;99.90;;;;;;4995943;28;20034;-91
2024/03/22 01:19:45;;;;;;;2.90;2.15;;;9.90;99.90;;;;;;5017179;28;20022;-91
2024/03/22 01:22:11;;;;;;;2.90;2.30;;;9.90;99.90;;;;;;5004655;28;20030;-91
2024/03/22 01:24:37;;;;;;;2.20;2.00;;;9.80;99.90;;;;;;4996771;28;20021;-90
2024/03/22 01:27:03;;;;;;;1.73;1.60;;;9.80;99.90;;;;;;4995921;28;20109;-91
2024/03/22 01:29:31;;;;;;;2.38;2.08;;;9.80;99.90;;;;;;4996033;28;20036;-91
2024/03/22 01:31:58;;;;;;;0.82;0.73;;;9.80;99.90;;;;;;4993167;28;20064;-90
2024/03/22 01:34:23;;;;;;;0.80;0.60;;;9.80;99.90;;;;;;4996101;28;20054;-91
2024/03/22 01:36:54;;;;;;;0.65;0.25;;;9.80;99.90;;;;;;4997472;28;20072;-90
2024/03/22 01:39:22;;;;;;;1.88;0.52;;;9.70;99.90;;;;;;4994887;28;20061;-91
2024/03/22 01:41:48;;;;;;;0.47;0.22;;;9.70;99.90;;;;;;4999537;28;20061;-90
2024/03/22 01:44:14;;;;;;;0.35;0.20;;;9.70;99.90;;;;;;5017024;28;20022;-90
2024/03/22 01:46:41;;;;;;;0.40;0.20;;;9.70;99.90;;;;;;4999829;28;20025;-91
2024/03/22 01:49:09;;;;;;;0.20;0.15;;;9.60;99.90;;;;;;4999849;28;20491;-91
2024/03/22 01:51:35;;;;;;;0.82;0.20;;;9.60;99.90;;;;;;4999860;28;20022;-91
2024/03/22 01:54:03;;;;;;;0.68;0.50;;;9.50;99.90;;;;;;5017311;28;20022;-91
2024/03/22 01:56:29;;;;;;;3.03;0.55;;;9.50;99.90;;;;;;4999751;28;20038;-92
2024/03/22 01:58:56;;;;;;;0.63;0.30;;;9.40;99.90;;;;;;4999501;28;20030;-91
2024/03/22 02:01:21;;;;;;;0.50;0.38;;;9.40;99.90;;;;;;5000128;28;20033;-93
2024/03/22 02:03:47;;;;;;;0.38;0.22;;;9.40;99.90;;;;;;4999534;28;20382;-91
2024/03/22 02:06:14;;;;;;;0.45;0.30;;;9.40;99.90;;;;;;4999537;28;20084;-90
2024/03/22 02:08:41;;;;;;;0.75;0.38;;;9.40;99.90;;;;;;4999841;28;20026;-91
2024/03/22 02:11:07;;;;;;;2.88;0.40;;;9.30;99.90;;;;;;5001733;28;20519;-91
2024/03/22 02:13:33;;;;;;;0.77;0.30;;;9.30;99.90;;;;;;5003110;28;20026;-89
2024/03/22 02:15:59;;;;;;;0.65;0.40;;;9.20;99.90;;;;;;5002954;28;20571;-91
2024/03/22 02:18:24;;;;;;;1.52;0.68;;;9.20;99.90;;;;;;5003972;28;20041;-91
2024/03/22 02:20:50;;;;;;;1.63;0.50;;;9.20;99.90;;;;;;5004880;28;20395;-90
2024/03/22 02:23:16;;;;;;;0.25;0.20;;;9.10;99.90;;;;;;4999556;28;20034;-91
2024/03/22 02:25:41;;;;;;;1.10;0.40;;;9.10;99.90;;;;;;5001010;28;20030;-91
2024/03/22 02:28:07;;;;;;;2.92;0.55;;;9.00;99.90;;;;;;4999873;28;20021;-92
2024/03/22 02:30:32;;;;;;;3.08;0.40;;;9.00;99.90;;;;;;4999775;28;20018;-90
2024/03/22 02:32:58;;;;;;;1.73;0.68;;;9.00;99.90;;;;;;4999758;28;20029;-90
2024/03/22 02:35:24;;;;;;;2.25;0.50;;;9.00;99.90;;;;;;4999650;28;20467;-90
2024/03/22 02:37:50;;;;;;;4.05;0.60;;;8.90;99.90;;;;;;4999307;28;20034;-90
2024/03/22 02:40:15;;;;;;;3.40;0.98;;;8.90;99.90;;;;;;4998865;28;20026;-91
2024/03/22 02:42:41;;;;;;;3.67;1.05;;;8.90;99.90;;;;;;4998964;28;20025;-91
2024/03/22 02:45:07;;;;;;;5.90;1.02;;;8.80;99.90;;;;;;4998892;28;20513;-89
2024/03/22 02:47:33;;;;;;;3.22;0.80;;;8.80;99.90;;;;;;4998935;28;20030;-90
2024/03/22 02:49:58;;;;;;;4.38;1.08;;;8.80;99.90;;;;;;4998720;28;20032;-89
2024/03/22 02:52:24;;;;;;;2.53;0.98;;;8.70;99.90;;;;;;4998598;28;20034;-90
2024/03/22 02:54:50;;;;;;;3.17;0.93;;;8.70;99.90;;;;;;4998528;28;20494;-90
2024/03/22 02:57:15;;;;;;;4.88;1.42;;;8.70;99.90;;;;;;4998473;28;20041;-90
2024/03/22 02:59:42;;;;;;;4.32;1.08;;;8.60;99.90;;;;;;4982715;28;20046;-90
2024/03/22 03:02:08;;;;;;;8.48;1.83;;;8.60;99.90;;;;;;4998404;28;20410;-90
2024/03/22 03:04:33;;;;;;;6.25;1.75;;;8.60;99.90;;;;;;4998367;28;20018;-92
2024/03/22 03:07:00;;;;;;;4.65;1.25;;;8.50;99.90;;;;;;4998197;28;20097;-91
2024/03/22 03:09:25;;;;;;;6.88;2.03;;;8.50;99.90;;;;;;4997730;28;20021;-91
2024/03/22 03:11:51;;;;;;;2.90;1.30;;;8.50;99.90;;;;;;4998225;28;20458;-92
2024/03/22 03:14:17;;;;;;;9.93;1.90;;;8.50;99.90;;;;;;4998220;28;20071;-91
2024/03/22 03:16:42;;;;;;;8.18;1.38;;;8.40;99.90;;;;;;4998256;28;20026;-90
2024/03/22 03:19:08;;;;;;;8.57;1.40;;;8.40;99.90;;;;;;4997894;28;20033;-88
2024/03/22 03:21:34;;;;;;;10.43;1.90;;;8.40;99.90;;;;;;4997528;28;20045;-91
2024/03/22 03:23:59;;;;;;;8.32;1.58;;;8.40;99.90;;;;;;4998982;28;20018;-90
2024/03/22 03:26:26;;;;;;;4.53;2.15;;;8.30;99.90;;;;;;4999578;28;20034;-90
2024/03/22 03:28:51;;;;;;;8.27;1.80;;;8.30;99.90;;;;;;5000305;28;20018;-90
2024/03/22 03:31:17;;;;;;;9.73;2.10;;;8.30;99.90;;;;;;5001084;28;20026;-90
2024/03/22 03:33:43;;;;;;;10.48;2.10;;;8.30;99.90;;;;;;5002049;28;20376;-90
2024/03/22 03:36:08;;;;;;;10.00;2.28;;;8.30;99.90;;;;;;4998978;28;20057;-90
2024/03/22 03:38:37;;;;;;;15.05;2.60;;;8.20;99.90;;;;;;4997946;28;20026;-89
2024/03/22 03:41:03;;;;;;;9.25;1.90;;;8.30;99.90;;;;;;4998389;28;20096;-91
2024/03/22 03:43:28;;;;;;;6.32;1.73;;;8.20;99.90;;;;;;4998235;28;20038;-91
2024/03/22 03:45:55;;;;;;;11.85;2.00;;;8.20;99.90;;;;;;4997930;28;20105;-90
2024/03/22 03:48:21;;;;;;;14.55;2.20;;;8.20;99.90;;;;;;4997353;28;20022;-91
2024/03/22 03:50:54;;;;;;;11.43;2.45;;;8.20;99.90;;;;;;4997262;28;20510;-90
2024/03/22 03:53:21;;;;;;;12.85;2.15;;;8.20;99.90;;;;;;4994881;28;20018;-91
2024/03/22 03:55:48;;;;;;;11.93;2.05;;;8.20;99.90;;;;;;4997338;28;20026;-93
2024/03/22 03:58:13;;;;;;;7.25;1.77;;;8.20;99.90;;;;;;4997399;28;20041;-91
2024/03/22 04:00:39;;;;;;;12.95;2.35;;;8.20;99.90;;;;;;4996975;28;20361;-90
2024/03/22 04:03:05;;;;;;;11.75;2.30;;;8.20;99.90;;;;;;4997443;28;20033;-90
2024/03/22 04:05:30;;;;;;;10.60;2.90;;;8.20;99.90;;;;;;4997021;28;20021;-91
2024/03/22 04:07:56;;;;;;;15.15;4.50;;;8.20;99.90;;;;;;4997130;28;20112;-89
2024/03/22 04:10:22;;;;;;;12.38;3.20;;;8.20;99.90;;;;;;4997191;28;20046;-91
2024/03/22 04:12:47;;;;;;;16.17;4.05;;;8.20;99.90;;;;;;4997227;28;20030;-91
2024/03/22 04:15:13;;;;;;;15.90;4.10;;;8.20;99.90;;;;;;4997264;28;20040;-90
2024/03/22 04:17:39;;;;;;;20.73;4.03;;;8.20;99.90;;;;;;4997115;28;20080;-90
2024/03/22 04:20:05;;;;;;;23.67;3.72;;;8.20;99.90;;;;;;4997201;28;20029;-90
2024/03/22 04:22:31;;;;;;;24.63;3.67;;;8.20;99.90;;;;;;4997027;28;20038;-91
2024/03/22 04:24:57;;;;;;;29.20;3.80;;;8.20;99.90;;;;;;4997035;28;20117;-91
2024/03/22 04:27:22;;;;;;;22.38;4.22;;;8.20;99.90;;;;;;4997074;28;20061;-90
2024/03/22 04:29:48;;;;;;;25.10;4.63;;;8.20;99.90;;;;;;4997211;28;20502;-90
2024/03/22 04:32:13;;;;;;;17.40;4.00;;;8.20;99.90;;;;;;4997179;28;20510;-90
2024/03/22 04:34:42;;;;;;;26.48;3.22;;;8.20;99.90;;;;;;4996451;28;20077;-92
2024/03/22 04:37:09;;;;;;;29.38;4.35;;;8.20;99.90;;;;;;4996366;28;20029;-90
2024/03/22 04:39:37;;;;;;;17.50;3.38;;;8.20;99.90;;;;;;4996902;28;20029;-91
2024/03/22 04:42:03;;;;;;;33.67;3.35;;;8.20;99.90;;;;;;5014340;28;20025;-91
2024/03/22 04:44:29;;;;;;;27.80;4.03;;;8.20;99.90;;;;;;4996177;28;20037;-92
2024/03/22 04:46:55;;;;;;;32.05;4.75;;;8.20;99.90;;;;;;4996840;28;20085;-91
2024/03/22 04:49:21;;;;;;;26.45;3.78;;;8.20;99.90;;;;;;4994992;28;20026;-92
2024/03/22 04:51:47;;;;;;;33.58;6.25;;;8.20;99.90;;;;;;4996686;28;20098;-90
2024/03/22 04:54:12;;;;;;;23.13;4.78;;;8.20;99.90;;;;;;4996742;28;20110;-92
2024/03/22 04:56:40;;;;;;;23.02;3.72;;;8.20;99.90;;;;;;5014323;28;20085;-90
2024/03/22 04:59:05;;;;;;;36.13;5.10;;;8.20;99.90;;;;;;4996562;28;20137;-89
2024/03/22 05:01:31;;;;;;;33.90;4.28;;;8.20;99.90;;;;;;4994548;28;20108;-90
2024/03/22 05:03:57;;;;;;;26.65;3.78;;;8.20;99.90;;;;;;4994340;28;20022;-90
2024/03/22 05:06:22;;;;;;;43.13;6.60;;;8.20;99.90;;;;;;4996332;28;20054;-90
2024/03/22 05:08:48;;;;;;;41.90;3.90;;;8.10;99.90;;;;;;4996275;28;20068;-92
2024/03/22 05:11:14;;;;;;;21.55;3.30;;;8.10;99.90;;;;;;4995594;28;20057;-92
2024/03/22 05:13:40;;;;;;;34.20;3.70;;;8.10;99.90;;;;;;4996621;28;20174;-91
2024/03/22 05:16:06;;;;;;;36.58;5.18;;;8.10;99.90;;;;;;5013991;28;20393;-91
2024/03/22 05:18:32;;;;;;;41.13;5.75;;;8.10;99.90;;;;;;5013750;28;20042;-91
2024/03/22 05:20:58;;;;;;;33.50;4.88;;;8.10;99.90;;;;;;4996425;28;20041;-93
2024/03/22 05:23:23;;;;;;;36.00;5.57;;;8.10;99.90;;;;;;4997111;28;20029;-90
2024/03/22 05:25:49;;;;;;;32.88;4.13;;;8.00;99.90;;;;;;5015749;28;20439;-92
2024/03/22 05:28:15;;;;;;;32.67;3.97;;;8.00;99.90;;;;;;4998518;28;20037;-90
2024/03/22 05:30:40;;;;;;;29.52;4.30;;;8.00;99.90;;;;;;4998051;28;20052;-89
2024/03/22 05:33:06;;;;;;;33.63;5.10;;;8.00;99.90;;;;;;4997973;28;20030;-90
2024/03/22 05:35:32;;;;;;;30.50;6.32;;;8.00;99.90;;;;;;4997908;28;20029;-92
2024/03/22 05:37:57;;;;;;;35.33;4.70;;;8.00;99.90;;;;;;4997555;28;20038;-90
2024/03/22 05:40:23;;;;;;;32.80;5.68;;;7.90;99.90;;;;;;4997767;28;20114;-90
2024/03/22 05:42:49;;;;;;;30.17;4.10;;;8.00;99.90;;;;;;4997309;28;20029;-90
2024/03/22 05:45:15;;;;;;;37.08;4.82;;;8.00;99.90;;;;;;5016301;28;20046;-90
2024/03/22 05:47:40;;;;;;;33.08;4.88;;;7.90;99.90;;;;;;5005323;28;20033;-89
2024/03/22 05:50:08;;;;;;;35.80;5.55;;;8.00;99.90;;;;;;5001171;28;20468;-90
2024/03/22 05:52:34;;;;;;;41.50;4.35;;;8.00;99.90;;;;;;4996732;28;20030;-91
2024/03/22 05:55:00;;;;;;;29.98;6.32;;;8.00;99.90;;;;;;4996595;28;20026;-92
2024/03/22 05:57:25;;;;;;;36.72;5.38;;;8.00;99.90;;;;;;4996086;28;20057;-91
2024/03/22 05:59:53;;;;;;;30.90;4.47;;;8.00;99.90;;;;;;4996635;28;20026;-90
2024/03/22 06:02:18;;;;;;;24.17;3.25;;;8.00;99.90;;;;;;5003275;28;20101;-90
2024/03/22 06:04:44;;;;;;;32.35;4.18;;;8.00;99.90;;;;;;5014401;28;20049;-90
2024/03/22 06:07:10;;;;;;;29.70;4.30;;;8.00;99.90;;;;;;4996154;28;20038;-89
2024/03/22 06:09:48;;;;;;;36.03;4.35;;;8.00;99.90;;;;;;4995877;28;20022;-91
2024/03/22 06:12:15;;;;;;;33.65;4.65;;;7.90;99.90;;;;;;4995881;28;20133;-91
2024/03/22 06:14:42;;;;;;;33.63;4.10;;;7.90;99.90;;;;;;4995990;28;20026;-92
2024/03/22 06:17:08;;;;;;;28.90;3.70;;;7.90;99.90;;;;;;4996037;28;20041;-90
2024/03/22 06:19:34;;;;;;;44.13;4.57;;;7.80;99.90;;;;;;4996145;28;20022;-90
2024/03/22 06:22:00;;;;;;;37.80;5.95;;;7.80;99.90;;;;;;4996077;28;20030;-91
2024/03/22 06:24:25;;;;;;;37.63;3.90;;;7.80;99.90;;;;;;4998676;28;20021;-91
2024/03/22 06:26:51;;;;;;;38.35;4.22;;;7.80;99.90;;;;;;4998957;28;20026;-90
2024/03/22 06:29:17;;;;;;;41.40;5.13;;;7.80;99.90;;;;;;4998508;28;20398;-89
2024/03/22 06:31:43;;;;;;;36.47;5.38;;;7.70;99.90;;;;;;4998686;28;20471;-91
2024/03/22 06:34:08;;;;;;;36.10;4.57;;;7.70;99.90;;;;;;4998950;28;20037;-90
2024/03/22 06:36:34;;;;;;;37.22;5.95;;;7.70;99.90;;;;;;5000455;28;20030;-90
2024/03/22 06:39:00;;;;;;;42.35;4.80;;;7.70;99.90;;;;;;5004251;28;20121;-91
2024/03/22 06:41:26;;;;;;;30.45;3.20;;;7.70;99.90;;;;;;5015519;28;20487;-90
2024/03/22 06:43:52;;;;;;;33.42;3.85;;;7.60;99.90;;;;;;5002814;28;20041;-88
2024/03/22 06:46:17;;;;;;;52.08;5.38;;;7.70;99.90;;;;;;5000896;28;20022;-91
2024/03/22 06:48:43;;;;;;;35.08;5.13;;;7.60;99.90;;;;;;5002700;28;20022;-91
2024/03/22 06:51:09;;;;;;;26.73;3.20;;;7.60;99.90;;;;;;4998386;28;20022;-92
2024/03/22 06:53:35;;;;;;;42.20;6.03;;;7.60;99.90;;;;;;4998369;28;20487;-91
2024/03/22 06:56:00;;;;;;;39.05;5.22;;;7.60;99.90;;;;;;4998233;28;20041;-90
2024/03/22 06:58:26;;;;;;;41.03;5.28;;;7.60;99.90;;;;;;4998306;28;20495;-90
2024/03/22 07:00:51;;;;;;;35.38;3.85;;;7.60;99.90;;;;;;4994986;28;20483;-89
2024/03/22 07:03:17;;;;;;;36.40;5.20;;;7.60;99.90;;;;;;4997870;28;20487;-91
2024/03/22 07:05:43;;;;;;;40.42;8.00;;;7.60;99.90;;;;;;4998074;28;20021;-90
2024/03/22 07:08:09;;;;;;;41.05;4.25;;;7.60;99.90;;;;;;4998036;28;20092;-91
2024/03/22 07:10:39;;;;;;;27.55;4.03;;;7.60;99.90;;;;;;4993750;28;20748;-91
2024/03/22 07:13:05;;;;;;;43.10;4.63;;;7.60;99.90;;;;;;4995106;28;20057;-90
2024/03/22 07:15:32;;;;;;;28.50;4.30;;;7.60;99.90;;;;;;4994202;28;20273;-91
2024/03/22 07:17:58;;;;;;;32.28;5.10;;;7.60;99.90;;;;;;4994211;28;20050;-91
2024/03/22 07:20:24;;;;;;;36.08;4.45;;;7.60;99.90;;;;;;4993832;28;20032;-91
2024/03/22 07:22:50;;;;;;;28.52;3.55;;;7.60;99.90;;;;;;4993920;28;20030;-90
2024/03/22 07:25:25;;;;;;;43.40;6.90;;;7.60;99.90;;;;;;4994163;28;20034;-91
2024/03/22 07:27:50;;;;;;;35.95;5.20;;;7.70;99.90;;;;;;4994419;28;20026;-91
2024/03/22 07:30:16;;;;;;;31.27;4.35;;;7.60;99.90;;;;;;4993673;28;20038;-92
2024/03/22 07:32:42;;;;;;;33.47;4.72;;;7.60;99.90;;;;;;4993617;28;20495;-92
2024/03/22 07:35:07;;;;;;;37.50;5.18;;;7.60;99.90;;;;;;4993471;28;20029;-92
2024/03/22 07:37:35;;;;;;;40.30;5.88;;;7.60;99.90;;;;;;4994602;28;20042;-91
2024/03/22 07:40:02;;;;;;;18.98;3.15;;;7.70;99.90;;;;;;4994120;28;20049;-92
2024/03/22 07:42:28;;;;;;;34.30;4.88;;;7.70;99.90;;;;;;4994974;28;20095;-91
2024/03/22 07:44:53;;;;;;;60.53;6.68;;;7.70;99.90;;;;;;4994762;28;20090;-91
2024/03/22 07:47:19;;;;;;;49.72;6.22;;;7.70;99.90;;;;;;4994772;28;20113;-89
2024/03/22 07:49:45;;;;;;;43.17;5.75;;;7.70;99.90;;;;;;4994888;28;20101;-91
2024/03/22 07:52:11;;;;;;;40.13;4.63;;;7.60;99.90;;;;;;4995568;28;20097;-92
2024/03/22 07:54:36;;;;;;;32.63;4.07;;;7.60;99.90;;;;;;4995324;28;20048;-91
2024/03/22 07:57:03;;;;;;;41.67;5.53;;;7.70;99.90;;;;;;4996621;28;20049;-91
2024/03/22 07:59:29;;;;;;;33.38;3.72;;;7.70;99.90;;;;;;4996413;28;20019;-92
2024/03/22 08:01:57;;;;;;;41.28;4.97;;;7.70;99.90;;;;;;4995185;28;20030;-91
2024/03/22 08:04:22;;;;;;;43.85;4.70;;;7.70;99.90;;;;;;4997550;28;20023;-89
2024/03/22 08:06:50;;;;;;;30.70;4.28;;;7.70;99.90;;;;;;4993412;28;20134;-91
2024/03/22 08:09:16;;;;;;;37.22;5.65;;;7.70;99.90;;;;;;4991641;28;20066;-89
2024/03/22 08:11:42;;;;;;;26.10;3.42;;;7.70;99.90;;;;;;4994100;28;20042;-90
2024/03/22 08:14:07;;;;;;;39.58;5.45;;;7.80;99.90;;;;;;4994285;28;20018;-92
2024/03/22 08:16:33;;;;;;;40.13;5.15;;;7.80;99.90;;;;;;4993570;28;20105;-91
2024/03/22 08:18:59;;;;;;;43.70;4.95;;;7.80;99.90;;;;;;4993152;28;20042;-91
2024/03/22 08:21:25;;;;;;;32.08;3.78;;;7.80;99.90;;;;;;4993122;28;20033;-90
2024/03/22 08:23:51;;;;;;;31.13;4.07;;;7.80;99.90;;;;;;4992813;28;20018;-89
2024/03/22 08:26:18;;;;;;;24.67;4.10;;;7.80;99.90;;;;;;5008048;28;20420;-91
2024/03/22 08:28:44;;;;;;;36.95;5.38;;;7.80;99.90;;;;;;4993541;28;20053;-91
2024/03/22 08:31:10;;;;;;;32.05;4.30;;;7.90;99.90;;;;;;4993805;28;20026;-92
2024/03/22 08:33:36;;;;;;;31.90;3.85;;;7.90;99.90;;;;;;4994023;28;20019;-92
2024/03/22 08:36:02;;;;;;;36.80;4.93;;;8.00;99.90;;;;;;4993764;28;20014;-92
2024/03/22 08:38:27;;;;;;;23.98;3.30;;;8.00;99.90;;;;;;4995879;28;20038;-92
2024/03/22 08:40:53;;;;;;;30.05;4.25;;;8.10;99.90;;;;;;5002024;28;20082;-88
2024/03/22 08:43:19;;;;;;;26.38;4.10;;;8.10;99.90;;;;;;5003534;28;20053;-90
2024/03/22 08:45:44;;;;;;;30.70;4.22;;;8.20;99.90;;;;;;4999891;28;20014;-91
2024/03/22 08:48:10;;;;;;;20.38;3.65;;;8.30;99.90;;;;;;4997483;28;20026;-91
2024/03/22 08:50:35;;;;;;;26.83;3.50;;;8.40;99.90;;;;;;4997034;28;20472;-91
2024/03/22 08:53:05;;;;;;;26.77;3.88;;;8.50;99.90;;;;;;4995879;28;20570;-90
2024/03/22 08:55:31;;;;;;;20.52;2.83;;;8.60;99.90;;;;;;4996513;28;20023;-91
2024/03/22 08:57:57;;;;;;;19.88;2.95;;;8.60;99.90;;;;;;4988973;28;20710;-90
2024/03/22 09:00:22;;;;;;;28.10;3.20;;;8.70;99.90;;;;;;4992597;28;20403;-91
2024/03/22 09:02:49;;;;;;;29.63;3.72;;;8.80;99.90;;;;;;4993902;28;20034;-92
2024/03/22 09:05:15;;;;;;;33.50;3.40;;;8.80;99.90;;;;;;4996690;28;20022;-89
2024/03/22 09:07:40;;;;;;;26.40;3.72;;;8.80;99.90;;;;;;4998334;28;20123;-91
2024/03/22 09:10:07;;;;;;;24.90;3.58;;;8.80;99.90;;;;;;4998685;28;20058;-91
2024/03/22 09:12:32;;;;;;;24.42;3.72;;;8.80;99.90;;;;;;5000137;28;20088;-91
2024/03/22 09:14:58;;;;;;;28.55;4.40;;;8.90;99.90;;;;;;4999339;28;20026;-91
2024/03/22 09:17:24;;;;;;;27.45;3.58;;;8.90;99.90;;;;;;4998588;28;20130;-93
2024/03/22 09:19:49;;;;;;;26.17;3.17;;;8.90;99.90;;;;;;4997498;28;20014;-92
2024/03/22 09:22:15;;;;;;;23.65;2.80;;;8.80;99.90;;;;;;4997452;28;20029;-91
2024/03/22 09:24:41;;;;;;;23.10;4.05;;;8.80;99.90;;;;;;4997716;28;20026;-92
2024/03/22 09:27:10;;;;;;;22.27;2.22;;;8.80;99.90;;;;;;4997018;28;20376;-90
2024/03/22 09:29:36;;;;;;;26.50;3.80;;;8.70;99.90;;;;;;4996443;28;20029;-92
2024/03/22 09:32:02;;;;;;;21.33;2.40;;;8.70;99.90;;;;;;4996960;28;20538;-92
2024/03/22 09:34:29;;;;;;;20.33;3.03;;;8.70;99.90;;;;;;4996611;28;20068;-92
2024/03/22 09:36:56;;;;;;;14.70;2.30;;;8.60;99.90;;;;;;4996238;28;20048;-93
2024/03/22 09:39:22;;;;;;;22.13;3.40;;;8.60;99.90;;;;;;5013233;28;20076;-91
2024/03/22 09:41:50;;;;;;;21.50;3.75;;;8.70;99.90;;;;;;4996044;28;20022;-91
2024/03/22 09:44:21;;;;;;;14.52;2.88;;;8.70;99.90;;;;;;4996084;28;20060;-90
2024/03/22 09:46:48;;;;;;;20.27;3.80;;;8.80;99.90;;;;;;4996419;28;20041;-94
2024/03/22 09:49:14;;;;;;;26.17;2.42;;;8.80;99.90;;;;;;5003301;28;20029;-90
2024/03/22 09:51:41;;;;;;;25.42;2.92;;;8.90;99.90;;;;;;5002872;28;20073;-89
2024/03/22 09:54:07;;;;;;;19.75;4.18;;;8.90;99.90;;;;;;5000121;28;20117;-91
2024/03/22 09:56:35;;;;;;;19.60;2.50;;;9.10;99.90;;;;;;4999345;28;20029;-91
2024/03/22 09:59:01;;;;;;;19.70;2.65;;;9.20;99.90;;;;;;5000648;28;20049;-90
2024/03/22 10:01:26;;;;;;;26.70;3.55;;;9.30;99.90;;;;;;5002169;28;20511;-93
2024/03/22 10:03:53;;;;;;;18.13;2.30;;;9.40;99.90;;;;;;4999944;28;20025;-94
2024/03/22 10:06:20;;;;;;;18.10;2.33;;;9.60;99.90;;;;;;5000452;28;20033;-93
2024/03/22 10:08:46;;;;;;;17.60;2.03;;;9.70;99.90;;;;;;4999709;28;20025;-91
2024/03/22 10:11:12;;;;;;;18.80;4.53;;;9.70;99.90;;;;;;4996952;28;20043;-94
2024/03/22 10:13:38;;;;;;;12.48;2.00;;;9.80;99.90;;;;;;5004374;28;20049;-93
2024/03/22 10:16:04;;;;;;;18.00;2.67;;;9.80;99.90;;;;;;5000285;28;20037;-91
2024/03/22 10:18:33;;;;;;;14.65;2.63;;;9.90;99.90;;;;;;5010366;28;20341;-92
2024/03/22 10:21:03;;;;;;;11.25;2.03;;;10.10;99.90;;;;;;5001649;28;20015;-92
2024/03/22 10:23:30;;;;;;;15.70;3.75;;;10.20;99.90;;;;;;4996591;28;20061;-93
2024/03/22 10:25:59;;;;;;;11.73;2.63;;;10.40;99.90;;;;;;5001198;28;20022;-90
2024/03/22 10:28:26;;;;;;;16.00;2.10;;;10.50;99.90;;;;;;5003723;28;20037;-90
2024/03/22 10:30:52;;;;;;;15.63;2.80;;;10.70;99.90;;;;;;4997389;28;20065;-92
2024/03/22 10:33:25;;;;;;;15.40;1.60;;;10.90;99.90;;;;;;4995420;28;20042;-92
2024/03/22 10:35:54;;;;;;;14.75;2.58;;;11.20;99.90;;;;;;4996668;28;20109;-92
2024/03/22 10:38:21;;;;;;;19.13;2.47;;;11.20;99.90;;;;;;5000381;28;20041;-93
2024/03/22 10:40:50;;;;;;;16.83;2.35;;;11.30;96.70;;;;;;4996544;28;20026;-92
2024/03/22 10:43:17;;;;;;;23.65;2.85;;;11.20;96.30;;;;;;4997352;28;20027;-90
2024/03/22 10:45:47;;;;;;;10.77;1.90;;;11.10;96.80;;;;;;5002111;28;20023;-91
2024/03/22 10:48:17;;;;;;;;;;;11.10;96.60;;;;;;5011623;28;20031;-90
2024/03/22 10:50:42;;;;;;;11.45;2.00;;;11.10;96.90;;;;;;4997105;28;19906;-91
2024/03/22 10:53:24;;;;;;;15.57;3.30;;;11.10;97.00;;;;;;4995653;28;20034;-91
2024/03/22 10:55:50;;;;;;;11.95;2.35;;;11.10;97.10;;;;;;4996056;28;20050;-92
2024/03/22 10:58:25;;;;;;;19.98;2.65;;;11.10;96.70;;;;;;4995972;28;20038;-91
2024/03/22 11:00:52;;;;;;;10.98;1.73;;;11.10;96.90;;;;;;4997802;28;20113;-92
2024/03/22 11:03:25;;;;;;;4.75;1.25;;;11.10;96.40;;;;;;5006468;28;20031;-91
2024/03/22 11:05:56;;;;;;;12.88;1.98;;;11.10;95.50;;;;;;5004377;28;20019;-90
2024/03/22 11:08:26;;;;;;;12.18;2.22;;;11.10;95.20;;;;;;5004251;28;20022;-90
2024/03/22 11:10:53;;;;;;;6.13;1.20;;;11.30;95.10;;;;;;5005565;28;20039;-90
2024/03/22 11:13:19;;;;;;;7.82;1.75;;;11.40;93.70;;;;;;5003559;28;20076;-91
2024/03/22 11:15:49;;;;;;;13.98;2.03;;;11.50;92.90;;;;;;5002276;28;20038;-92
2024/03/22 11:18:16;;;;;;;10.50;1.80;;;11.60;92.90;;;;;;4999884;28;20026;-91
2024/03/22 11:20:42;;;;;;;9.70;1.65;;;11.80;92.40;;;;;;4997337;28;20556;-91
2024/03/22 11:23:09;;;;;;;8.88;2.38;;;12.10;91.00;;;;;;5005675;28;20037;-92
2024/03/22 11:25:35;;;;;;;16.23;2.92;;;12.30;90.00;;;;;;5006926;28;20022;-90
2024/03/22 11:28:02;;;;;;;12.52;1.75;;;12.50;88.10;;;;;;5003676;28;20113;-91
2024/03/22 11:30:29;;;;;;;17.92;2.15;;;12.80;87.90;;;;;;5003858;28;20041;-90
2024/03/22 11:32:55;;;;;;;17.65;2.05;;;13.00;85.00;;;;;;5018914;28;20026;-90
2024/03/22 11:35:22;;;;;;;10.80;1.55;;;13.10;84.80;;;;;;5006036;28;20491;-91
2024/03/22 11:37:49;;;;;;;15.88;2.60;;;13.20;84.30;;;;;;5006448;28;20019;-92
2024/03/22 11:40:15;;;;;;;17.00;2.30;;;13.30;83.70;;;;;;5005416;28;20041;-91
2024/03/22 11:42:45;;;;;;;12.80;2.10;;;13.20;82.50;;;;;;5005723;28;20026;-92
2024/03/22 11:45:14;;;;;;;8.90;1.73;;;13.30;82.00;;;;;;5006794;28;20045;-92
2024/03/22 11:47:39;;;;;;;8.45;1.50;;;13.50;80.80;;;;;;5006470;28;20042;-92
2024/03/22 11:50:06;;;;;;;10.27;2.20;;;13.60;79.10;;;;;;5003308;28;20437;-92
2024/03/22 11:52:31;;;;;;;15.38;2.13;;;13.80;78.80;;;;;;5004630;28;20057;-91
2024/03/22 11:54:57;;;;;;;7.53;1.88;;;14.10;78.50;;;;;;5003933;28;20134;-92
2024/03/22 11:57:24;;;;;;;10.40;1.73;;;14.40;78.40;;;;;;5002527;28;20030;-91
2024/03/22 11:59:51;;;;;;;10.90;1.85;;;14.70;78.00;;;;;;5002317;28;20027;-92
2024/03/22 12:02:17;;;;;;;8.73;1.40;;;14.80;76.50;;;;;;5001877;28;20113;-90
2024/03/22 12:04:47;;;;;;;14.18;1.95;;;14.70;74.90;;;;;;5002230;28;20022;-91
2024/03/22 12:07:17;;;;;;;12.18;2.05;;;14.60;75.00;;;;;;5004083;28;20073;-91
2024/03/22 12:09:45;;;;;;;7.20;1.70;;;14.80;75.50;;;;;;5002906;28;20022;-91
2024/03/22 12:12:12;;;;;;;9.95;2.03;;;15.00;75.80;;;;;;5005682;28;20042;-90
2024/03/22 12:14:39;;;;;;;12.15;2.85;;;15.00;74.30;;;;;;5002049;28;20026;-90
2024/03/22 12:17:05;;;;;;;9.88;1.63;;;14.70;73.70;;;;;;5001070;28;20129;-90
2024/03/22 12:19:31;;;;;;;8.13;1.73;;;14.40;73.70;;;;;;5006376;28;20475;-92
2024/03/22 12:21:57;;;;;;;11.45;1.42;;;14.40;74.40;;;;;;5010295;28;20045;-91
2024/03/22 12:24:23;;;;;;;12.52;1.95;;;14.60;75.00;;;;;;5012883;28;20521;-90
2024/03/22 12:26:50;;;;;;;7.63;1.60;;;14.80;74.50;;;;;;5015765;28;20038;-90
2024/03/22 12:29:16;;;;;;;10.95;2.00;;;15.00;72.70;;;;;;5006736;28;20030;-90
2024/03/22 12:31:43;;;;;;;11.27;1.90;;;15.20;71.00;;;;;;5001209;28;20113;-91
2024/03/22 12:34:09;;;;;;;12.20;2.17;;;15.30;69.10;;;;;;5007798;28;20041;-92
2024/03/22 12:36:35;;;;;;;9.13;1.58;;;15.30;67.30;;;;;;5002310;28;20116;-90
2024/03/22 12:39:00;;;;;;;10.55;1.70;;;15.10;66.70;;;;;;5003351;28;20026;-91
2024/03/22 12:41:29;;;;;;;9.88;1.83;;;14.80;66.90;;;;;;4997545;28;20022;-92
2024/03/22 12:43:55;;;;;;;9.93;1.67;;;14.30;66.70;;;;;;5005990;28;20037;-92